createdAt,value
2018-06-29T00:00:25.550Z,20.42
2018-06-29T00:01:32.111Z,20.45
2018-06-29T00:02:39.648Z,20.46
2018-06-29T00:03:45.190Z,20.50
2018-06-29T00:04:51.744Z,20.51
2018-06-29T00:05:58.303Z,20.51
2018-06-29T00:07:04.835Z,20.55
2018-06-29T00:08:11.379Z,20.57
2018-06-29T00:09:17.929Z,20.59
2018-06-29T00:10:24.478Z,20.62
2018-06-29T00:11:31.037Z,20.61
2018-06-29T00:12:37.577Z,20.61
2018-06-29T00:13:44.128Z,20.61
2018-06-29T00:14:50.672Z,20.58
2018-06-29T00:15:57.219Z,20.57
2018-06-29T00:17:03.781Z,20.55
2018-06-29T00:18:10.324Z,20.55
2018-06-29T00:19:16.874Z,20.54
2018-06-29T00:20:23.414Z,20.52
2018-06-29T00:21:29.984Z,20.51
2018-06-29T00:22:36.521Z,20.52
2018-06-29T00:23:43.073Z,20.55
2018-06-29T00:24:49.613Z,20.54
2018-06-29T00:25:56.163Z,20.54
2018-06-29T00:27:02.724Z,20.53
2018-06-29T00:28:09.264Z,20.52
2018-06-29T00:29:15.905Z,20.51
2018-06-29T00:30:22.360Z,20.51
2018-06-29T00:31:28.922Z,20.51
2018-06-29T00:32:35.474Z,20.50
2018-06-29T00:33:42.020Z,20.53
2018-06-29T00:34:48.557Z,20.54
2018-06-29T00:35:55.110Z,20.54
2018-06-29T00:37:01.660Z,20.55
2018-06-29T00:38:08.218Z,20.58
2018-06-29T00:39:14.755Z,20.55
2018-06-29T00:40:21.306Z,20.58
2018-06-29T00:41:27.846Z,20.59
2018-06-29T00:42:34.409Z,20.62
2018-06-29T00:43:40.962Z,20.62
2018-06-29T00:44:47.644Z,20.59
2018-06-29T00:45:54.057Z,20.54
2018-06-29T00:47:00.605Z,20.52
2018-06-29T00:48:07.154Z,20.52
2018-06-29T00:49:13.707Z,20.50
2018-06-29T00:50:20.246Z,20.43
2018-06-29T00:51:26.792Z,20.39
2018-06-29T00:52:33.353Z,20.37
2018-06-29T00:53:39.907Z,20.37
2018-06-29T00:54:46.441Z,20.37
2018-06-29T00:55:52.990Z,20.41
2018-06-29T00:56:59.534Z,20.42
2018-06-29T00:58:06.093Z,20.43
2018-06-29T00:59:12.640Z,20.43
2018-06-29T01:00:19.177Z,20.45
2018-06-29T01:01:25.732Z,20.46
2018-06-29T01:02:32.277Z,20.50
2018-06-29T01:03:38.816Z,20.53
2018-06-29T01:04:45.366Z,20.54
2018-06-29T01:05:51.915Z,20.52
2018-06-29T01:06:58.475Z,20.50
2018-06-29T01:08:05.033Z,20.46
2018-06-29T01:09:11.572Z,20.45
2018-06-29T01:10:18.112Z,20.44
2018-06-29T01:11:24.670Z,20.41
2018-06-29T01:12:31.214Z,20.40
2018-06-29T01:13:37.755Z,20.42
2018-06-29T01:14:44.302Z,20.42
2018-06-29T01:15:50.860Z,20.43
2018-06-29T01:16:57.409Z,20.41
2018-06-29T01:18:03.961Z,20.39
2018-06-29T01:19:10.507Z,20.39
2018-06-29T01:20:17.044Z,20.39
2018-06-29T01:21:23.591Z,20.38
2018-06-29T01:22:30.138Z,20.39
2018-06-29T01:23:36.691Z,20.39
2018-06-29T01:24:43.243Z,20.36
2018-06-29T01:25:49.782Z,20.33
2018-06-29T01:26:56.342Z,20.29
2018-06-29T01:28:02.888Z,20.28
2018-06-29T01:29:09.449Z,20.22
2018-06-29T01:30:15.981Z,20.20
2018-06-29T01:31:22.524Z,20.15
2018-06-29T01:32:29.071Z,20.14
2018-06-29T01:33:35.625Z,20.13
2018-06-29T01:34:43.168Z,20.12
2018-06-29T01:35:48.707Z,20.10
2018-06-29T01:36:55.264Z,20.10
2018-06-29T01:38:01.893Z,20.08
2018-06-29T01:39:08.351Z,20.06
2018-06-29T01:40:14.905Z,20.04
2018-06-29T01:41:21.491Z,20.02
2018-06-29T01:42:27.977Z,20.03
2018-06-29T01:43:34.712Z,20.00
2018-06-29T01:44:41.066Z,19.97
2018-06-29T01:45:47.599Z,19.93
2018-06-29T01:46:54.143Z,19.89
2018-06-29T01:48:00.690Z,19.86
2018-06-29T01:49:07.247Z,19.81
2018-06-29T01:50:13.767Z,19.80
2018-06-29T01:51:20.302Z,19.79
2018-06-29T01:52:27.150Z,19.78
2018-06-29T01:53:33.387Z,19.77
2018-06-29T01:54:39.922Z,19.75
2018-06-29T01:55:46.459Z,19.74
2018-06-29T01:56:52.996Z,19.72
2018-06-29T01:57:59.546Z,19.70
2018-06-29T01:59:06.069Z,19.67
2018-06-29T02:00:12.610Z,19.65
2018-06-29T02:01:19.133Z,19.61
2018-06-29T02:02:25.672Z,19.59
2018-06-29T02:03:32.209Z,19.59
2018-06-29T02:04:38.749Z,19.63
2018-06-29T02:05:45.567Z,19.61
2018-06-29T02:06:51.802Z,19.59
2018-06-29T02:07:58.373Z,19.57
2018-06-29T02:09:04.869Z,19.56
2018-06-29T02:10:11.389Z,19.58
2018-06-29T02:11:17.916Z,19.60
2018-06-29T02:12:24.436Z,19.62
2018-06-29T02:13:31.964Z,19.60
2018-06-29T02:14:37.506Z,19.56
2018-06-29T02:15:44.035Z,19.55
2018-06-29T02:16:50.568Z,19.57
2018-06-29T02:17:57.093Z,19.55
2018-06-29T02:19:03.623Z,19.54
2018-06-29T02:20:10.153Z,19.53
2018-06-29T02:21:16.677Z,19.53
2018-06-29T02:22:23.205Z,19.52
2018-06-29T02:23:29.749Z,19.51
2018-06-29T02:24:36.278Z,19.51
2018-06-29T02:25:42.895Z,19.48
2018-06-29T02:26:49.326Z,19.43
2018-06-29T02:27:55.856Z,19.44
2018-06-29T02:29:02.387Z,19.42
2018-06-29T02:30:08.906Z,19.41
2018-06-29T02:31:15.442Z,19.38
2018-06-29T02:32:21.951Z,19.36
2018-06-29T02:33:28.477Z,19.34
2018-06-29T02:34:36.013Z,19.34
2018-06-29T02:35:41.537Z,19.31
2018-06-29T02:36:48.054Z,19.32
2018-06-29T02:37:54.577Z,19.27
2018-06-29T02:39:01.121Z,19.25
2018-06-29T02:40:07.632Z,19.22
2018-06-29T02:41:14.158Z,19.22
2018-06-29T02:42:20.658Z,19.22
2018-06-29T02:43:27.192Z,19.18
2018-06-29T02:44:33.702Z,19.15
2018-06-29T02:45:40.232Z,19.14
2018-06-29T02:46:46.756Z,19.14
2018-06-29T02:47:53.257Z,19.12
2018-06-29T02:48:59.779Z,19.09
2018-06-29T02:50:07.294Z,19.08
2018-06-29T02:51:12.911Z,19.05
2018-06-29T02:52:19.328Z,19.05
2018-06-29T02:53:25.843Z,19.03
2018-06-29T02:54:32.365Z,19.05
2018-06-29T02:55:38.893Z,19.04
2018-06-29T02:56:45.386Z,19.04
2018-06-29T02:57:51.903Z,19.07
2018-06-29T02:58:58.406Z,19.08
2018-06-29T03:00:04.909Z,19.07
2018-06-29T03:01:11.437Z,19.07
2018-06-29T03:02:17.930Z,19.08
2018-06-29T03:03:24.454Z,19.07
2018-06-29T03:04:30.959Z,19.08
2018-06-29T03:05:37.483Z,19.08
2018-06-29T03:06:44.003Z,19.10
2018-06-29T03:07:50.509Z,19.09
2018-06-29T03:08:57.020Z,19.09
2018-06-29T03:10:03.526Z,19.07
2018-06-29T03:11:10.049Z,19.08
2018-06-29T03:12:16.547Z,19.09
2018-06-29T03:13:23.059Z,19.11
2018-06-29T03:14:29.585Z,19.12
2018-06-29T03:15:36.092Z,19.13
2018-06-29T03:16:42.614Z,19.17
2018-06-29T03:17:49.119Z,19.18
2018-06-29T03:18:55.624Z,19.21
2018-06-29T03:20:02.140Z,19.23
2018-06-29T03:21:08.657Z,19.23
2018-06-29T03:22:15.649Z,19.23
2018-06-29T03:23:21.664Z,19.26
2018-06-29T03:24:28.185Z,19.27
2018-06-29T03:25:34.698Z,19.31
2018-06-29T03:26:41.206Z,19.32
2018-06-29T03:27:47.707Z,19.38
2018-06-29T03:28:54.224Z,19.38
2018-06-29T03:30:00.735Z,19.35
2018-06-29T03:31:07.260Z,19.31
2018-06-29T03:32:13.759Z,19.27
2018-06-29T03:33:20.281Z,19.25
2018-06-29T03:34:26.886Z,19.24
2018-06-29T03:35:33.303Z,19.23
2018-06-29T03:36:39.832Z,19.22
2018-06-29T03:37:46.333Z,19.22
2018-06-29T03:38:52.849Z,19.25
2018-06-29T03:39:59.356Z,19.30
2018-06-29T03:41:06.385Z,19.31
2018-06-29T03:42:12.398Z,19.32
2018-06-29T03:43:18.910Z,19.32
2018-06-29T03:44:25.416Z,19.33
2018-06-29T03:45:31.928Z,19.33
2018-06-29T03:46:38.456Z,19.34
2018-06-29T03:47:45.463Z,19.37
2018-06-29T03:48:51.674Z,19.37
2018-06-29T03:49:58.008Z,19.38
2018-06-29T03:51:04.506Z,19.38
2018-06-29T03:52:11.035Z,19.36
2018-06-29T03:53:17.534Z,19.33
2018-06-29T03:54:24.059Z,19.33
2018-06-29T03:55:30.568Z,19.36
2018-06-29T03:56:37.101Z,19.37
2018-06-29T03:57:43.614Z,19.38
2018-06-29T03:58:50.127Z,19.35
2018-06-29T03:59:56.635Z,19.33
2018-06-29T04:01:03.153Z,19.32
2018-06-29T04:02:09.685Z,19.31
2018-06-29T04:03:16.244Z,19.40
2018-06-29T04:04:22.725Z,19.44
2018-06-29T04:05:29.232Z,19.46
2018-06-29T04:06:35.755Z,19.48
2018-06-29T04:07:42.284Z,19.48
2018-06-29T04:08:48.890Z,19.47
2018-06-29T04:09:55.322Z,19.45
2018-06-29T04:11:01.831Z,19.42
2018-06-29T04:12:08.363Z,19.39
2018-06-29T04:13:15.372Z,19.35
2018-06-29T04:14:21.394Z,19.34
2018-06-29T04:15:27.921Z,19.34
2018-06-29T04:16:34.454Z,19.38
2018-06-29T04:17:40.970Z,19.42
2018-06-29T04:18:47.485Z,19.43
2018-06-29T04:19:54.007Z,19.48
2018-06-29T04:21:00.521Z,19.48
2018-06-29T04:22:07.042Z,19.47
2018-06-29T04:23:13.574Z,19.47
2018-06-29T04:24:20.092Z,19.46
2018-06-29T04:25:26.611Z,19.45
2018-06-29T04:26:33.200Z,19.45
2018-06-29T04:27:39.660Z,19.45
2018-06-29T04:28:46.189Z,19.47
2018-06-29T04:29:53.194Z,19.52
2018-06-29T04:30:59.224Z,19.54
2018-06-29T04:32:05.746Z,19.56
2018-06-29T04:33:12.280Z,19.55
2018-06-29T04:34:18.884Z,19.58
2018-06-29T04:35:25.326Z,19.61
2018-06-29T04:36:31.863Z,19.66
2018-06-29T04:37:38.382Z,19.74
2018-06-29T04:38:44.926Z,19.80
2018-06-29T04:39:51.447Z,19.86
2018-06-29T04:40:57.995Z,19.95
2018-06-29T04:42:04.530Z,19.99
2018-06-29T04:43:11.068Z,20.04
2018-06-29T04:44:17.610Z,20.09
2018-06-29T04:45:24.146Z,20.12
2018-06-29T04:46:30.708Z,20.16
2018-06-29T04:47:37.249Z,20.18
2018-06-29T04:48:43.821Z,20.19
2018-06-29T04:49:50.354Z,20.19
2018-06-29T04:50:56.908Z,20.12
2018-06-29T04:52:03.485Z,20.04
2018-06-29T04:53:10.023Z,20.03
2018-06-29T04:54:16.591Z,20.00
2018-06-29T04:55:23.134Z,20.01
2018-06-29T04:56:29.693Z,19.98
2018-06-29T04:57:36.257Z,20.04
2018-06-29T04:58:42.837Z,20.09
2018-06-29T04:59:49.372Z,20.15
2018-06-29T05:00:55.978Z,20.22
2018-06-29T05:02:02.512Z,20.28
2018-06-29T05:03:09.062Z,20.36
2018-06-29T05:04:15.636Z,20.36
2018-06-29T05:05:22.192Z,20.38
2018-06-29T05:06:28.769Z,20.36
2018-06-29T05:07:35.337Z,20.35
2018-06-29T05:08:41.910Z,20.34
2018-06-29T05:09:48.487Z,20.33
2018-06-29T05:10:55.045Z,20.36
2018-06-29T05:12:01.625Z,20.41
2018-06-29T05:13:08.196Z,20.46
2018-06-29T05:14:14.898Z,20.51
2018-06-29T05:15:21.339Z,20.58
2018-06-29T05:16:27.917Z,20.62
2018-06-29T05:17:34.507Z,20.73
2018-06-29T05:18:41.088Z,20.79
2018-06-29T05:19:47.689Z,20.96
2018-06-29T05:20:54.751Z,21.18
2018-06-29T05:22:00.850Z,21.25
2018-06-29T05:23:07.456Z,21.38
2018-06-29T05:24:14.045Z,21.30
2018-06-29T05:25:20.656Z,21.19
2018-06-29T05:26:27.245Z,21.15
2018-06-29T05:27:33.863Z,21.20
2018-06-29T05:28:40.495Z,21.29
2018-06-29T05:29:47.071Z,21.38
2018-06-29T05:30:54.666Z,21.39
2018-06-29T05:32:00.281Z,21.31
2018-06-29T05:33:06.895Z,21.18
2018-06-29T05:34:13.492Z,20.99
2018-06-29T05:35:20.106Z,20.88
2018-06-29T05:36:26.697Z,20.76
2018-06-29T05:37:33.284Z,20.69
2018-06-29T05:38:39.887Z,20.66
2018-06-29T05:39:46.484Z,20.68
2018-06-29T05:40:53.067Z,20.70
2018-06-29T05:41:59.664Z,20.69
2018-06-29T05:43:06.244Z,20.72
2018-06-29T05:44:12.833Z,20.72
2018-06-29T05:45:19.435Z,20.74
2018-06-29T05:46:26.073Z,20.76
2018-06-29T05:47:32.592Z,20.77
2018-06-29T05:48:39.174Z,20.77
2018-06-29T05:49:45.772Z,20.75
2018-06-29T05:50:52.352Z,20.75
2018-06-29T05:51:58.922Z,20.75
2018-06-29T05:53:05.563Z,20.77
2018-06-29T05:54:12.084Z,20.77
2018-06-29T05:55:18.671Z,20.79
2018-06-29T05:56:25.255Z,20.82
2018-06-29T05:57:31.896Z,20.81
2018-06-29T05:58:38.410Z,20.80
2018-06-29T05:59:45.019Z,20.80
2018-06-29T06:00:51.564Z,20.84
2018-06-29T06:01:58.201Z,20.87
2018-06-29T06:03:04.727Z,20.88
2018-06-29T06:04:11.297Z,20.86
2018-06-29T06:05:17.892Z,20.90
2018-06-29T06:06:24.453Z,20.93
2018-06-29T06:07:31.037Z,20.95
2018-06-29T06:08:37.615Z,21.00
2018-06-29T06:09:44.207Z,20.98
2018-06-29T06:10:51.776Z,20.97
2018-06-29T06:11:57.360Z,20.96
2018-06-29T06:13:03.934Z,20.96
2018-06-29T06:14:10.520Z,20.98
2018-06-29T06:15:17.112Z,21.00
2018-06-29T06:16:23.669Z,21.03
2018-06-29T06:17:30.251Z,21.04
2018-06-29T06:18:36.830Z,21.08
2018-06-29T06:19:43.412Z,21.12
2018-06-29T06:20:50.007Z,21.16
2018-06-29T06:21:56.635Z,21.19
2018-06-29T06:23:03.466Z,21.25
2018-06-29T06:24:09.757Z,21.28
2018-06-29T06:25:16.325Z,21.35
2018-06-29T06:26:22.930Z,21.39
2018-06-29T06:27:29.493Z,21.42
2018-06-29T06:28:36.081Z,21.44
2018-06-29T06:29:42.668Z,21.48
2018-06-29T06:30:49.264Z,21.54
2018-06-29T06:31:55.842Z,21.59
2018-06-29T06:33:02.452Z,21.63
2018-06-29T06:34:09.036Z,21.67
2018-06-29T06:35:15.629Z,21.72
2018-06-29T06:36:22.227Z,21.78
2018-06-29T06:37:28.900Z,21.82
2018-06-29T06:38:35.422Z,21.83
2018-06-29T06:39:42.011Z,21.88
2018-06-29T06:40:48.623Z,21.93
2018-06-29T06:41:55.216Z,21.99
2018-06-29T06:43:01.835Z,22.03
2018-06-29T06:44:08.440Z,22.08
2018-06-29T06:45:15.049Z,22.07
2018-06-29T06:46:21.693Z,22.12
2018-06-29T06:47:28.281Z,22.17
2018-06-29T06:48:34.901Z,22.20
2018-06-29T06:49:41.519Z,22.26
2018-06-29T06:50:48.143Z,22.31
2018-06-29T06:51:54.766Z,22.40
2018-06-29T06:53:01.393Z,22.49
2018-06-29T06:54:08.007Z,22.45
2018-06-29T06:55:14.638Z,22.44
2018-06-29T06:56:21.289Z,22.47
2018-06-29T06:57:27.917Z,22.55
2018-06-29T06:58:34.612Z,22.57
2018-06-29T06:59:41.187Z,22.61
2018-06-29T07:00:48.548Z,22.64
2018-06-29T07:01:54.478Z,22.71
2018-06-29T07:03:01.106Z,22.78
2018-06-29T07:04:07.748Z,22.85
2018-06-29T07:05:14.393Z,22.92
2018-06-29T07:06:21.035Z,22.99
2018-06-29T07:07:27.678Z,22.96
2018-06-29T07:08:34.316Z,22.97
2018-06-29T07:09:40.975Z,22.94
2018-06-29T07:10:47.631Z,22.96
2018-06-29T07:11:54.272Z,23.00
2018-06-29T07:13:00.924Z,23.03
2018-06-29T07:14:07.577Z,23.04
2018-06-29T07:15:14.236Z,23.10
2018-06-29T07:16:20.887Z,23.19
2018-06-29T07:17:27.542Z,23.99
2018-06-29T07:18:34.189Z,25.42
2018-06-29T07:19:40.850Z,27.52
2018-06-29T07:20:47.543Z,28.74
2018-06-29T07:21:54.173Z,28.59
2018-06-29T07:23:00.831Z,29.83
2018-06-29T07:24:07.495Z,31.49
2018-06-29T07:25:14.161Z,33.21
2018-06-29T07:26:20.822Z,33.66
2018-06-29T07:27:27.485Z,34.35
2018-06-29T07:28:34.148Z,34.21
2018-06-29T07:29:40.812Z,33.98
2018-06-29T07:30:47.474Z,34.16
2018-06-29T07:31:54.143Z,34.27
2018-06-29T07:33:00.800Z,34.01
2018-06-29T07:34:07.478Z,34.94
2018-06-29T07:35:14.149Z,35.94
2018-06-29T07:36:20.813Z,35.78
2018-06-29T07:37:27.498Z,35.96
2018-06-29T07:38:34.209Z,36.50
2018-06-29T07:39:40.849Z,35.86
2018-06-29T07:40:47.521Z,36.53
2018-06-29T07:41:54.286Z,37.34
2018-06-29T07:43:00.894Z,36.65
2018-06-29T07:44:07.580Z,36.34
2018-06-29T07:45:14.263Z,35.65
2018-06-29T07:46:20.954Z,34.53
2018-06-29T07:47:27.652Z,32.79
2018-06-29T07:48:34.348Z,30.68
2018-06-29T07:49:41.033Z,28.83
2018-06-29T07:50:47.718Z,27.69
2018-06-29T07:51:54.417Z,26.92
2018-06-29T07:53:01.122Z,26.12
2018-06-29T07:54:07.899Z,25.45
2018-06-29T07:55:14.535Z,25.07
2018-06-29T07:56:21.235Z,24.96
2018-06-29T07:57:27.940Z,24.96
2018-06-29T07:58:34.725Z,24.83
2018-06-29T07:59:41.343Z,24.71
2018-06-29T08:00:48.051Z,24.64
2018-06-29T08:01:54.758Z,24.62
2018-06-29T08:03:01.563Z,24.71
2018-06-29T08:04:08.163Z,24.84
2018-06-29T08:05:14.874Z,24.92
2018-06-29T08:06:21.589Z,24.93
2018-06-29T08:07:28.298Z,25.01
2018-06-29T08:08:35.018Z,25.14
2018-06-29T08:09:41.725Z,25.26
2018-06-29T08:10:48.451Z,25.24
2018-06-29T08:11:55.166Z,25.29
2018-06-29T08:13:01.906Z,25.31
2018-06-29T08:14:08.619Z,25.10
2018-06-29T08:15:15.337Z,24.85
2018-06-29T08:16:22.054Z,24.66
2018-06-29T08:17:28.787Z,24.57
2018-06-29T08:18:35.492Z,24.50
2018-06-29T08:19:42.197Z,24.56
2018-06-29T08:20:48.972Z,24.70
2018-06-29T08:21:55.631Z,24.83
2018-06-29T08:23:02.356Z,24.87
2018-06-29T08:24:09.075Z,24.86
2018-06-29T08:25:15.894Z,24.88
2018-06-29T08:26:22.502Z,24.91
2018-06-29T08:27:29.231Z,24.88
2018-06-29T08:28:35.964Z,24.88
2018-06-29T08:29:42.694Z,24.95
2018-06-29T08:30:49.399Z,24.98
2018-06-29T08:31:56.111Z,24.93
2018-06-29T08:33:02.838Z,24.94
2018-06-29T08:34:09.576Z,24.96
2018-06-29T08:35:16.296Z,25.01
2018-06-29T08:36:23.033Z,25.01
2018-06-29T08:37:29.775Z,25.07
2018-06-29T08:38:36.542Z,24.95
2018-06-29T08:39:43.249Z,24.85
2018-06-29T08:40:49.985Z,24.87
2018-06-29T08:41:56.706Z,24.95
2018-06-29T08:43:03.451Z,25.07
2018-06-29T08:44:11.226Z,25.16
2018-06-29T08:45:16.938Z,25.22
2018-06-29T08:46:23.671Z,25.19
2018-06-29T08:47:30.412Z,25.19
2018-06-29T08:48:37.173Z,25.23
2018-06-29T08:49:43.998Z,25.27
2018-06-29T08:50:50.663Z,25.29
2018-06-29T08:51:57.430Z,25.19
2018-06-29T08:53:04.162Z,25.21
2018-06-29T08:54:10.927Z,25.16
2018-06-29T08:55:17.670Z,25.18
2018-06-29T08:56:24.426Z,25.17
2018-06-29T08:57:31.194Z,25.12
2018-06-29T08:58:37.962Z,25.03
2018-06-29T08:59:45.712Z,25.22
2018-06-29T09:00:51.472Z,25.23
2018-06-29T09:01:58.229Z,25.18
2018-06-29T09:03:04.999Z,25.23
2018-06-29T09:04:11.772Z,25.24
2018-06-29T09:05:18.527Z,25.28
2018-06-29T09:06:25.285Z,25.40
2018-06-29T09:07:32.057Z,25.41
2018-06-29T09:08:38.833Z,25.55
2018-06-29T09:09:45.604Z,25.60
2018-06-29T09:10:52.438Z,25.60
2018-06-29T09:11:59.164Z,25.68
2018-06-29T09:13:05.933Z,25.72
2018-06-29T09:14:12.702Z,25.83
2018-06-29T09:15:19.492Z,25.80
2018-06-29T09:16:26.274Z,25.88
2018-06-29T09:17:33.054Z,25.90
2018-06-29T09:18:39.859Z,25.85
2018-06-29T09:19:46.629Z,25.72
2018-06-29T09:20:53.450Z,25.65
2018-06-29T09:22:00.221Z,25.73
2018-06-29T09:23:07.009Z,25.85
2018-06-29T09:24:13.891Z,25.78
2018-06-29T09:25:20.600Z,25.80
2018-06-29T09:26:27.362Z,25.81
2018-06-29T09:27:34.135Z,25.74
2018-06-29T09:28:40.912Z,25.73
2018-06-29T09:29:47.692Z,25.81
2018-06-29T09:30:54.495Z,25.89
2018-06-29T09:32:01.239Z,25.93
2018-06-29T09:33:08.025Z,26.02
2018-06-29T09:34:14.794Z,26.04
2018-06-29T09:35:21.567Z,25.98
2018-06-29T09:36:28.464Z,26.01
2018-06-29T09:37:35.130Z,26.07
2018-06-29T09:38:41.906Z,26.17
2018-06-29T09:39:49.682Z,26.11
2018-06-29T09:40:55.486Z,25.99
2018-06-29T09:42:02.247Z,25.94
2018-06-29T09:43:09.018Z,26.02
2018-06-29T09:44:15.891Z,26.15
2018-06-29T09:45:22.589Z,26.14
2018-06-29T09:46:29.372Z,26.18
2018-06-29T09:47:36.164Z,26.10
2018-06-29T09:48:42.921Z,25.99
2018-06-29T09:49:49.722Z,25.93
2018-06-29T09:50:56.497Z,25.89
2018-06-29T09:52:03.274Z,25.90
2018-06-29T09:53:10.040Z,25.98
2018-06-29T09:54:16.817Z,26.14
2018-06-29T09:55:24.595Z,26.30
2018-06-29T09:56:30.395Z,26.41
2018-06-29T09:57:37.151Z,26.44
2018-06-29T09:58:43.926Z,26.45
2018-06-29T09:59:50.703Z,26.49
2018-06-29T10:00:57.520Z,26.52
2018-06-29T10:02:04.276Z,26.56
2018-06-29T10:03:11.057Z,26.60
2018-06-29T10:04:17.856Z,26.60
2018-06-29T10:05:24.630Z,26.63
2018-06-29T10:06:31.441Z,26.49
2018-06-29T10:07:38.214Z,26.52
2018-06-29T10:08:45.011Z,26.50
2018-06-29T10:09:51.791Z,26.52
2018-06-29T10:10:58.593Z,26.54
2018-06-29T10:12:05.384Z,26.49
2018-06-29T10:13:12.177Z,26.51
2018-06-29T10:14:18.985Z,26.57
2018-06-29T10:15:25.764Z,26.58
2018-06-29T10:16:32.573Z,26.52
2018-06-29T10:17:39.356Z,26.58
2018-06-29T10:18:46.163Z,26.68
2018-06-29T10:19:53.110Z,26.77
2018-06-29T10:20:59.736Z,26.68
2018-06-29T10:22:06.546Z,26.74
2018-06-29T10:23:13.328Z,26.66
2018-06-29T10:24:20.196Z,26.52
2018-06-29T10:25:26.965Z,26.52
2018-06-29T10:26:33.746Z,26.57
2018-06-29T10:27:40.535Z,26.47
2018-06-29T10:28:47.340Z,26.49
2018-06-29T10:29:54.135Z,26.63
2018-06-29T10:31:00.957Z,26.89
2018-06-29T10:32:07.736Z,27.04
2018-06-29T10:33:14.532Z,27.11
2018-06-29T10:34:21.333Z,27.12
2018-06-29T10:35:28.154Z,27.16
2018-06-29T10:36:34.958Z,27.22
2018-06-29T10:37:41.769Z,27.07
2018-06-29T10:38:48.631Z,27.00
2018-06-29T10:39:55.373Z,26.95
2018-06-29T10:41:02.193Z,27.02
2018-06-29T10:42:09.022Z,27.02
2018-06-29T10:43:15.895Z,27.14
2018-06-29T10:44:22.624Z,27.30
2018-06-29T10:45:29.436Z,27.28
2018-06-29T10:46:36.257Z,27.21
2018-06-29T10:47:43.076Z,27.12
2018-06-29T10:48:49.891Z,27.13
2018-06-29T10:49:56.703Z,27.24
2018-06-29T10:51:03.533Z,27.40
2018-06-29T10:52:10.550Z,27.48
2018-06-29T10:53:17.171Z,27.62
2018-06-29T10:54:23.994Z,27.72
2018-06-29T10:55:30.812Z,27.74
2018-06-29T10:56:37.649Z,27.77
2018-06-29T10:57:44.480Z,27.80
2018-06-29T10:58:51.326Z,27.75
2018-06-29T10:59:58.134Z,27.77
2018-06-29T11:01:04.960Z,27.84
2018-06-29T11:02:11.802Z,27.76
2018-06-29T11:03:18.642Z,27.53
2018-06-29T11:04:25.497Z,27.27
2018-06-29T11:05:32.347Z,27.23
2018-06-29T11:06:39.236Z,27.29
2018-06-29T11:07:46.215Z,27.37
2018-06-29T11:08:53.272Z,27.62
2018-06-29T11:10:00.402Z,27.98
2018-06-29T11:11:07.595Z,28.19
2018-06-29T11:12:14.876Z,28.24
2018-06-29T11:13:22.230Z,28.21
2018-06-29T11:14:29.615Z,28.15
2018-06-29T11:15:37.074Z,27.90
2018-06-29T11:16:44.589Z,27.85
2018-06-29T11:17:52.125Z,27.82
2018-06-29T11:18:59.699Z,27.72
2018-06-29T11:20:07.322Z,27.85
2018-06-29T11:21:14.964Z,27.93
2018-06-29T11:22:22.659Z,28.06
2018-06-29T11:23:30.386Z,28.14
2018-06-29T11:24:38.120Z,28.17
2018-06-29T11:25:45.887Z,28.11
2018-06-29T11:26:53.688Z,28.17
2018-06-29T11:28:01.525Z,28.30
2018-06-29T11:29:09.371Z,28.31
2018-06-29T11:30:17.267Z,28.19
2018-06-29T11:31:25.119Z,28.01
2018-06-29T11:32:33.033Z,27.97
2018-06-29T11:33:40.966Z,28.00
2018-06-29T11:34:48.893Z,27.97
2018-06-29T11:35:57.023Z,27.83
2018-06-29T11:37:04.887Z,27.96
2018-06-29T11:38:12.773Z,28.13
2018-06-29T11:39:20.740Z,28.25
2018-06-29T11:40:28.729Z,28.19
2018-06-29T11:41:36.729Z,28.02
2018-06-29T11:42:44.732Z,28.06
2018-06-29T11:43:52.748Z,28.16
2018-06-29T11:45:00.773Z,28.26
2018-06-29T11:46:08.896Z,28.22
2018-06-29T11:47:16.903Z,28.29
2018-06-29T11:48:24.851Z,28.42
2018-06-29T11:49:33.901Z,28.51
2018-06-29T11:50:40.978Z,28.47
2018-06-29T11:51:49.032Z,28.46
2018-06-29T11:52:57.112Z,28.46
2018-06-29T11:54:05.221Z,28.52
2018-06-29T11:55:13.310Z,28.65
2018-06-29T11:56:21.423Z,28.70
2018-06-29T11:57:29.556Z,28.72
2018-06-29T11:58:37.684Z,28.60
2018-06-29T11:59:45.822Z,28.52
2018-06-29T12:00:53.963Z,28.64
2018-06-29T12:02:02.107Z,28.75
2018-06-29T12:03:10.254Z,28.70
2018-06-29T12:04:18.417Z,28.60
2018-06-29T12:05:26.570Z,28.47
2018-06-29T12:06:34.728Z,28.53
2018-06-29T12:07:42.887Z,28.67
2018-06-29T12:08:51.074Z,28.85
2018-06-29T12:09:59.259Z,29.14
2018-06-29T12:11:07.456Z,29.22
2018-06-29T12:12:15.891Z,29.34
2018-06-29T12:13:23.880Z,29.38
2018-06-29T12:14:32.107Z,29.38
2018-06-29T12:15:40.336Z,29.39
2018-06-29T12:16:48.606Z,29.37
2018-06-29T12:17:56.815Z,29.12
2018-06-29T12:19:05.078Z,29.00
2018-06-29T12:20:13.321Z,28.91
2018-06-29T12:21:21.578Z,28.89
2018-06-29T12:22:29.836Z,28.82
2018-06-29T12:23:38.105Z,28.71
2018-06-29T12:24:46.385Z,28.76
2018-06-29T12:25:54.648Z,28.81
2018-06-29T12:27:02.920Z,28.72
2018-06-29T12:28:11.188Z,28.60
2018-06-29T12:29:19.456Z,28.59
2018-06-29T12:30:27.691Z,28.64
2018-06-29T12:31:35.952Z,28.65
2018-06-29T12:32:44.689Z,28.63
2018-06-29T12:33:52.408Z,28.80
2018-06-29T12:35:00.649Z,28.87
2018-06-29T12:36:08.863Z,28.99
2018-06-29T12:37:17.092Z,28.99
2018-06-29T12:38:25.294Z,28.91
2018-06-29T12:39:33.527Z,28.82
2018-06-29T12:40:41.712Z,28.83
2018-06-29T12:41:49.923Z,28.81
2018-06-29T12:42:58.119Z,28.80
2018-06-29T12:44:06.324Z,28.75
2018-06-29T12:45:14.508Z,28.73
2018-06-29T12:46:22.681Z,28.82
2018-06-29T12:47:30.867Z,28.74
2018-06-29T12:48:39.042Z,28.72
2018-06-29T12:49:47.209Z,28.73
2018-06-29T12:50:55.374Z,28.83
2018-06-29T12:52:03.535Z,28.87
2018-06-29T12:53:11.681Z,28.97
2018-06-29T12:54:19.832Z,28.69
2018-06-29T12:55:27.985Z,28.75
2018-06-29T12:56:36.129Z,28.75
2018-06-29T12:57:44.304Z,28.76
2018-06-29T12:58:52.387Z,28.83
2018-06-29T13:00:00.527Z,29.02
2018-06-29T13:01:08.650Z,29.41
2018-06-29T13:02:16.807Z,29.70
2018-06-29T13:03:24.947Z,29.86
2018-06-29T13:04:33.083Z,30.14
2018-06-29T13:05:41.303Z,30.22
2018-06-29T13:06:49.402Z,30.15
2018-06-29T13:07:57.566Z,30.12
2018-06-29T13:09:05.742Z,29.91
2018-06-29T13:10:14.919Z,29.83
2018-06-29T13:11:22.099Z,29.73
2018-06-29T13:12:30.245Z,29.66
2018-06-29T13:13:38.395Z,29.68
2018-06-29T13:14:46.535Z,29.67
2018-06-29T13:15:54.686Z,29.67
2018-06-29T13:17:02.891Z,29.74
2018-06-29T13:18:10.942Z,29.90
2018-06-29T13:19:19.058Z,30.06
2018-06-29T13:20:27.189Z,30.12
2018-06-29T13:21:35.340Z,30.12
2018-06-29T13:22:43.438Z,30.05
2018-06-29T13:23:51.565Z,29.95
2018-06-29T13:24:59.746Z,29.98
2018-06-29T13:26:07.811Z,30.08
2018-06-29T13:27:15.909Z,30.08
2018-06-29T13:28:24.078Z,30.14
2018-06-29T13:29:32.132Z,30.04
2018-06-29T13:30:40.230Z,29.74
2018-06-29T13:31:48.332Z,29.68
2018-06-29T13:32:56.412Z,29.69
2018-06-29T13:34:04.482Z,29.74
2018-06-29T13:35:12.543Z,29.46
2018-06-29T13:36:20.611Z,29.29
2018-06-29T13:37:28.645Z,29.19
2018-06-29T13:38:36.688Z,29.23
2018-06-29T13:39:44.727Z,29.26
2018-06-29T13:40:52.780Z,29.43
2018-06-29T13:42:00.806Z,29.66
2018-06-29T13:43:08.827Z,29.83
2018-06-29T13:44:16.841Z,29.78
2018-06-29T13:45:24.860Z,29.78
2018-06-29T13:46:32.899Z,30.09
2018-06-29T13:47:40.928Z,30.36
2018-06-29T13:48:48.950Z,30.51
2018-06-29T13:49:57.994Z,30.50
2018-06-29T13:51:05.056Z,30.44
2018-06-29T13:52:13.109Z,30.29
2018-06-29T13:53:21.170Z,29.96
2018-06-29T13:54:29.219Z,29.71
2018-06-29T13:55:37.275Z,29.64
2018-06-29T13:56:45.311Z,29.66
2018-06-29T13:57:53.322Z,29.83
2018-06-29T13:59:01.411Z,29.94
2018-06-29T14:00:09.353Z,29.99
2018-06-29T14:01:17.376Z,30.11
2018-06-29T14:02:25.431Z,30.20
2018-06-29T14:03:33.417Z,30.17
2018-06-29T14:04:41.428Z,29.92
2018-06-29T14:05:49.449Z,29.85
2018-06-29T14:06:57.491Z,29.84
2018-06-29T14:08:05.497Z,29.96
2018-06-29T14:09:13.500Z,30.21
2018-06-29T14:10:21.510Z,30.31
2018-06-29T14:11:29.562Z,30.42
2018-06-29T14:12:37.557Z,30.46
2018-06-29T14:13:45.581Z,30.42
2018-06-29T14:14:53.608Z,30.49
2018-06-29T14:16:01.634Z,30.52
2018-06-29T14:17:09.669Z,30.35
2018-06-29T14:18:18.692Z,30.48
2018-06-29T14:19:25.712Z,30.58
2018-06-29T14:20:33.740Z,30.55
2018-06-29T14:21:41.772Z,30.70